sensor_id;sensor_type;location;lat;lon;timestamp;P1;durP1;ratioP1;P2;durP2;ratioP2
20533;SDS011;12929;56.822;26.056;2023-09-19T00:00:39;20.23;;;11.50;;
20533;SDS011;12929;56.822;26.056;2023-09-19T00:03:09;21.33;;;12.75;;
20533;SDS011;12929;56.822;26.056;2023-09-19T00:05:39;18.00;;;11.52;;
20533;SDS011;12929;56.822;26.056;2023-09-19T00:08:12;19.20;;;11.48;;
20533;SDS011;12929;56.822;26.056;2023-09-19T00:10:43;19.58;;;12.63;;
20533;SDS011;12929;56.822;26.056;2023-09-19T00:13:11;22.30;;;13.00;;
20533;SDS011;12929;56.822;26.056;2023-09-19T00:15:43;20.77;;;11.50;;
20533;SDS011;12929;56.822;26.056;2023-09-19T00:18:19;18.17;;;11.23;;
20533;SDS011;12929;56.822;26.056;2023-09-19T00:20:49;20.10;;;12.02;;
20533;SDS011;12929;56.822;26.056;2023-09-19T00:23:19;17.25;;;10.63;;
20533;SDS011;12929;56.822;26.056;2023-09-19T00:25:47;18.55;;;11.30;;
20533;SDS011;12929;56.822;26.056;2023-09-19T00:28:15;20.42;;;13.13;;
20533;SDS011;12929;56.822;26.056;2023-09-19T00:30:44;18.58;;;11.70;;
20533;SDS011;12929;56.822;26.056;2023-09-19T00:33:12;17.05;;;10.90;;
20533;SDS011;12929;56.822;26.056;2023-09-19T00:35:47;16.98;;;10.25;;
20533;SDS011;12929;56.822;26.056;2023-09-19T00:38:15;19.05;;;11.82;;
20533;SDS011;12929;56.822;26.056;2023-09-19T00:40:45;20.60;;;11.55;;
20533;SDS011;12929;56.822;26.056;2023-09-19T00:43:13;17.02;;;10.38;;
20533;SDS011;12929;56.822;26.056;2023-09-19T00:45:42;21.67;;;12.40;;
20533;SDS011;12929;56.822;26.056;2023-09-19T00:48:12;20.80;;;11.90;;
20533;SDS011;12929;56.822;26.056;2023-09-19T00:50:44;20.63;;;13.00;;
20533;SDS011;12929;56.822;26.056;2023-09-19T00:53:18;18.33;;;12.00;;
20533;SDS011;12929;56.822;26.056;2023-09-19T00:55:48;20.63;;;13.07;;
20533;SDS011;12929;56.822;26.056;2023-09-19T00:58:17;19.67;;;13.52;;
20533;SDS011;12929;56.822;26.056;2023-09-19T01:00:49;21.00;;;12.18;;
20533;SDS011;12929;56.822;26.056;2023-09-19T01:03:17;20.10;;;13.02;;
20533;SDS011;12929;56.822;26.056;2023-09-19T01:05:45;21.33;;;13.32;;
20533;SDS011;12929;56.822;26.056;2023-09-19T01:08:13;19.90;;;13.02;;
20533;SDS011;12929;56.822;26.056;2023-09-19T01:10:44;19.52;;;12.60;;
20533;SDS011;12929;56.822;26.056;2023-09-19T01:13:30;21.05;;;13.63;;
20533;SDS011;12929;56.822;26.056;2023-09-19T01:16:13;21.30;;;14.23;;
20533;SDS011;12929;56.822;26.056;2023-09-19T01:19:20;19.52;;;12.75;;
20533;SDS011;12929;56.822;26.056;2023-09-19T01:22:16;23.77;;;13.60;;
20533;SDS011;12929;56.822;26.056;2023-09-19T01:27:46;21.85;;;14.00;;
20533;SDS011;12929;56.822;26.056;2023-09-19T01:30:35;19.25;;;12.60;;
20533;SDS011;12929;56.822;26.056;2023-09-19T01:33:06;19.55;;;13.25;;
20533;SDS011;12929;56.822;26.056;2023-09-19T01:35:34;23.20;;;14.00;;
20533;SDS011;12929;56.822;26.056;2023-09-19T01:38:06;20.45;;;13.43;;
20533;SDS011;12929;56.822;26.056;2023-09-19T01:40:39;21.75;;;13.15;;
20533;SDS011;12929;56.822;26.056;2023-09-19T01:46:04;20.58;;;13.90;;
20533;SDS011;12929;56.822;26.056;2023-09-19T01:48:41;22.38;;;15.05;;
20533;SDS011;12929;56.822;26.056;2023-09-19T01:51:26;22.60;;;15.15;;
20533;SDS011;12929;56.822;26.056;2023-09-19T01:54:07;22.00;;;14.38;;
20533;SDS011;12929;56.822;26.056;2023-09-19T01:56:45;22.95;;;14.88;;
20533;SDS011;12929;56.822;26.056;2023-09-19T01:59:20;21.52;;;12.85;;
20533;SDS011;12929;56.822;26.056;2023-09-19T02:01:51;23.08;;;14.45;;
20533;SDS011;12929;56.822;26.056;2023-09-19T02:04:20;21.13;;;14.18;;
20533;SDS011;12929;56.822;26.056;2023-09-19T02:06:47;27.05;;;16.88;;
20533;SDS011;12929;56.822;26.056;2023-09-19T02:09:15;22.42;;;14.88;;
20533;SDS011;12929;56.822;26.056;2023-09-19T02:11:44;22.67;;;14.05;;
20533;SDS011;12929;56.822;26.056;2023-09-19T02:14:11;20.13;;;13.68;;
20533;SDS011;12929;56.822;26.056;2023-09-19T02:16:39;21.70;;;14.50;;
20533;SDS011;12929;56.822;26.056;2023-09-19T02:19:07;19.85;;;13.38;;
20533;SDS011;12929;56.822;26.056;2023-09-19T02:21:34;21.63;;;15.25;;
20533;SDS011;12929;56.822;26.056;2023-09-19T02:24:02;24.58;;;14.18;;
20533;SDS011;12929;56.822;26.056;2023-09-19T02:26:30;20.00;;;13.60;;
20533;SDS011;12929;56.822;26.056;2023-09-19T02:28:57;22.67;;;15.32;;
20533;SDS011;12929;56.822;26.056;2023-09-19T02:31:26;22.33;;;15.00;;
20533;SDS011;12929;56.822;26.056;2023-09-19T02:33:56;21.90;;;14.25;;
20533;SDS011;12929;56.822;26.056;2023-09-19T02:36:23;21.63;;;14.23;;
20533;SDS011;12929;56.822;26.056;2023-09-19T02:38:51;23.65;;;14.65;;
20533;SDS011;12929;56.822;26.056;2023-09-19T02:41:18;22.38;;;14.27;;
20533;SDS011;12929;56.822;26.056;2023-09-19T02:43:46;21.33;;;13.98;;
20533;SDS011;12929;56.822;26.056;2023-09-19T02:46:14;22.10;;;14.63;;
20533;SDS011;12929;56.822;26.056;2023-09-19T02:48:41;23.08;;;14.95;;
20533;SDS011;12929;56.822;26.056;2023-09-19T02:51:09;20.45;;;13.73;;
20533;SDS011;12929;56.822;26.056;2023-09-19T02:53:37;22.67;;;14.88;;
20533;SDS011;12929;56.822;26.056;2023-09-19T02:56:05;22.95;;;15.80;;
20533;SDS011;12929;56.822;26.056;2023-09-19T02:58:34;25.52;;;15.05;;
20533;SDS011;12929;56.822;26.056;2023-09-19T03:01:09;22.88;;;14.52;;
20533;SDS011;12929;56.822;26.056;2023-09-19T03:03:39;21.90;;;14.00;;
20533;SDS011;12929;56.822;26.056;2023-09-19T03:06:07;19.92;;;12.70;;
20533;SDS011;12929;56.822;26.056;2023-09-19T03:08:36;18.23;;;12.50;;
20533;SDS011;12929;56.822;26.056;2023-09-19T03:11:06;22.30;;;13.32;;
20533;SDS011;12929;56.822;26.056;2023-09-19T03:13:37;25.33;;;16.88;;
20533;SDS011;12929;56.822;26.056;2023-09-19T03:16:05;22.17;;;14.63;;
20533;SDS011;12929;56.822;26.056;2023-09-19T03:18:34;20.35;;;14.07;;
20533;SDS011;12929;56.822;26.056;2023-09-19T03:21:02;29.10;;;16.02;;
20533;SDS011;12929;56.822;26.056;2023-09-19T03:23:30;22.20;;;14.13;;
20533;SDS011;12929;56.822;26.056;2023-09-19T03:25:58;23.00;;;14.98;;
20533;SDS011;12929;56.822;26.056;2023-09-19T03:28:26;22.98;;;14.65;;
20533;SDS011;12929;56.822;26.056;2023-09-19T03:31:06;21.50;;;15.23;;
20533;SDS011;12929;56.822;26.056;2023-09-19T03:33:35;22.80;;;15.00;;
20533;SDS011;12929;56.822;26.056;2023-09-19T03:36:04;22.45;;;15.18;;
20533;SDS011;12929;56.822;26.056;2023-09-19T03:38:32;20.40;;;13.93;;
20533;SDS011;12929;56.822;26.056;2023-09-19T03:41:03;19.10;;;12.88;;
20533;SDS011;12929;56.822;26.056;2023-09-19T03:43:33;22.88;;;15.77;;
20533;SDS011;12929;56.822;26.056;2023-09-19T03:46:02;20.77;;;14.57;;
20533;SDS011;12929;56.822;26.056;2023-09-19T03:48:32;21.77;;;14.55;;
20533;SDS011;12929;56.822;26.056;2023-09-19T03:51:01;21.40;;;14.27;;
20533;SDS011;12929;56.822;26.056;2023-09-19T03:53:29;21.80;;;13.52;;
20533;SDS011;12929;56.822;26.056;2023-09-19T03:55:57;23.88;;;15.85;;
20533;SDS011;12929;56.822;26.056;2023-09-19T03:58:29;23.42;;;14.63;;
20533;SDS011;12929;56.822;26.056;2023-09-19T04:00:57;22.92;;;14.45;;
20533;SDS011;12929;56.822;26.056;2023-09-19T04:03:27;25.52;;;17.70;;
20533;SDS011;12929;56.822;26.056;2023-09-19T04:06:02;24.23;;;15.90;;
20533;SDS011;12929;56.822;26.056;2023-09-19T04:08:29;25.90;;;15.52;;
20533;SDS011;12929;56.822;26.056;2023-09-19T04:10:57;22.15;;;13.30;;
20533;SDS011;12929;56.822;26.056;2023-09-19T04:13:25;23.85;;;15.65;;
20533;SDS011;12929;56.822;26.056;2023-09-19T04:15:53;22.88;;;15.20;;
20533;SDS011;12929;56.822;26.056;2023-09-19T04:18:21;19.30;;;13.23;;
20533;SDS011;12929;56.822;26.056;2023-09-19T04:20:50;21.80;;;14.60;;
20533;SDS011;12929;56.822;26.056;2023-09-19T04:23:18;22.55;;;14.98;;
20533;SDS011;12929;56.822;26.056;2023-09-19T04:25:48;24.20;;;15.88;;
20533;SDS011;12929;56.822;26.056;2023-09-19T04:28:15;19.83;;;13.25;;
20533;SDS011;12929;56.822;26.056;2023-09-19T04:30:43;22.35;;;15.48;;
20533;SDS011;12929;56.822;26.056;2023-09-19T04:33:11;18.80;;;13.25;;
20533;SDS011;12929;56.822;26.056;2023-09-19T04:35:41;22.00;;;14.05;;
20533;SDS011;12929;56.822;26.056;2023-09-19T04:38:11;22.70;;;13.13;;
20533;SDS011;12929;56.822;26.056;2023-09-19T04:40:39;20.38;;;15.43;;
20533;SDS011;12929;56.822;26.056;2023-09-19T04:43:06;21.27;;;13.93;;
20533;SDS011;12929;56.822;26.056;2023-09-19T04:45:34;21.92;;;15.00;;
20533;SDS011;12929;56.822;26.056;2023-09-19T04:48:02;20.55;;;14.57;;
20533;SDS011;12929;56.822;26.056;2023-09-19T04:50:30;22.83;;;14.82;;
20533;SDS011;12929;56.822;26.056;2023-09-19T04:52:57;24.52;;;14.90;;
20533;SDS011;12929;56.822;26.056;2023-09-19T04:55:26;22.67;;;15.45;;
20533;SDS011;12929;56.822;26.056;2023-09-19T04:57:54;21.75;;;15.32;;
20533;SDS011;12929;56.822;26.056;2023-09-19T05:00:22;19.90;;;13.77;;
20533;SDS011;12929;56.822;26.056;2023-09-19T05:02:51;23.15;;;15.52;;
20533;SDS011;12929;56.822;26.056;2023-09-19T05:05:19;19.73;;;13.10;;
20533;SDS011;12929;56.822;26.056;2023-09-19T05:07:49;20.25;;;13.50;;
20533;SDS011;12929;56.822;26.056;2023-09-19T05:10:18;23.00;;;15.25;;
20533;SDS011;12929;56.822;26.056;2023-09-19T05:12:46;20.30;;;14.43;;
20533;SDS011;12929;56.822;26.056;2023-09-19T05:15:15;20.70;;;14.63;;
20533;SDS011;12929;56.822;26.056;2023-09-19T05:17:50;22.98;;;14.77;;
20533;SDS011;12929;56.822;26.056;2023-09-19T05:20:23;21.25;;;14.85;;
20533;SDS011;12929;56.822;26.056;2023-09-19T05:23:00;21.48;;;14.48;;
20533;SDS011;12929;56.822;26.056;2023-09-19T05:25:35;22.55;;;15.48;;
20533;SDS011;12929;56.822;26.056;2023-09-19T05:28:06;20.23;;;14.32;;
20533;SDS011;12929;56.822;26.056;2023-09-19T05:30:35;24.63;;;17.73;;
20533;SDS011;12929;56.822;26.056;2023-09-19T05:33:05;22.73;;;15.63;;
20533;SDS011;12929;56.822;26.056;2023-09-19T05:35:33;20.75;;;14.65;;
20533;SDS011;12929;56.822;26.056;2023-09-19T05:38:01;25.50;;;14.90;;
20533;SDS011;12929;56.822;26.056;2023-09-19T05:40:28;24.23;;;15.93;;
20533;SDS011;12929;56.822;26.056;2023-09-19T05:42:56;23.92;;;16.67;;
20533;SDS011;12929;56.822;26.056;2023-09-19T05:45:24;25.33;;;15.63;;
20533;SDS011;12929;56.822;26.056;2023-09-19T05:47:52;22.52;;;15.23;;
20533;SDS011;12929;56.822;26.056;2023-09-19T05:50:28;23.25;;;16.23;;
20533;SDS011;12929;56.822;26.056;2023-09-19T05:52:55;26.63;;;16.25;;
20533;SDS011;12929;56.822;26.056;2023-09-19T05:55:23;23.02;;;15.70;;
20533;SDS011;12929;56.822;26.056;2023-09-19T05:57:54;24.25;;;16.15;;
20533;SDS011;12929;56.822;26.056;2023-09-19T06:00:22;22.80;;;16.25;;
20533;SDS011;12929;56.822;26.056;2023-09-19T06:02:53;24.45;;;16.08;;
20533;SDS011;12929;56.822;26.056;2023-09-19T06:05:23;24.73;;;16.85;;
20533;SDS011;12929;56.822;26.056;2023-09-19T06:07:54;22.20;;;15.23;;
20533;SDS011;12929;56.822;26.056;2023-09-19T06:10:22;22.65;;;14.32;;
20533;SDS011;12929;56.822;26.056;2023-09-19T06:12:50;24.35;;;14.68;;
20533;SDS011;12929;56.822;26.056;2023-09-19T06:15:18;22.75;;;15.35;;
20533;SDS011;12929;56.822;26.056;2023-09-19T06:17:46;25.70;;;16.77;;
20533;SDS011;12929;56.822;26.056;2023-09-19T06:20:16;24.02;;;16.55;;
20533;SDS011;12929;56.822;26.056;2023-09-19T06:22:44;25.83;;;16.15;;
20533;SDS011;12929;56.822;26.056;2023-09-19T06:25:13;23.98;;;15.30;;
20533;SDS011;12929;56.822;26.056;2023-09-19T06:27:50;24.17;;;16.60;;
20533;SDS011;12929;56.822;26.056;2023-09-19T06:30:21;21.60;;;14.40;;
20533;SDS011;12929;56.822;26.056;2023-09-19T06:32:55;27.08;;;16.67;;
20533;SDS011;12929;56.822;26.056;2023-09-19T06:35:24;21.33;;;15.48;;
20533;SDS011;12929;56.822;26.056;2023-09-19T06:37:53;22.23;;;15.90;;
20533;SDS011;12929;56.822;26.056;2023-09-19T06:40:21;24.52;;;15.38;;
20533;SDS011;12929;56.822;26.056;2023-09-19T06:42:51;22.23;;;14.82;;
20533;SDS011;12929;56.822;26.056;2023-09-19T06:45:20;20.95;;;14.68;;
20533;SDS011;12929;56.822;26.056;2023-09-19T06:47:49;26.00;;;15.90;;
20533;SDS011;12929;56.822;26.056;2023-09-19T06:50:19;23.98;;;16.02;;
20533;SDS011;12929;56.822;26.056;2023-09-19T06:52:50;24.83;;;15.60;;
20533;SDS011;12929;56.822;26.056;2023-09-19T06:55:21;25.10;;;15.30;;
20533;SDS011;12929;56.822;26.056;2023-09-19T06:57:52;21.85;;;15.38;;
20533;SDS011;12929;56.822;26.056;2023-09-19T07:00:21;23.42;;;14.85;;
20533;SDS011;12929;56.822;26.056;2023-09-19T07:02:56;23.65;;;14.75;;
20533;SDS011;12929;56.822;26.056;2023-09-19T07:05:28;22.63;;;15.32;;
20533;SDS011;12929;56.822;26.056;2023-09-19T07:07:56;21.92;;;14.38;;
20533;SDS011;12929;56.822;26.056;2023-09-19T07:10:28;19.67;;;13.23;;
20533;SDS011;12929;56.822;26.056;2023-09-19T07:12:56;20.95;;;14.00;;
20533;SDS011;12929;56.822;26.056;2023-09-19T07:15:27;21.65;;;14.10;;
20533;SDS011;12929;56.822;26.056;2023-09-19T07:17:56;21.85;;;15.07;;
20533;SDS011;12929;56.822;26.056;2023-09-19T07:20:24;20.25;;;14.07;;
20533;SDS011;12929;56.822;26.056;2023-09-19T07:22:58;22.15;;;13.45;;
20533;SDS011;12929;56.822;26.056;2023-09-19T07:25:27;20.88;;;14.43;;
20533;SDS011;12929;56.822;26.056;2023-09-19T07:27:58;21.90;;;13.77;;
20533;SDS011;12929;56.822;26.056;2023-09-19T07:30:28;24.08;;;14.73;;
20533;SDS011;12929;56.822;26.056;2023-09-19T07:32:57;17.52;;;11.68;;
20533;SDS011;12929;56.822;26.056;2023-09-19T07:35:25;23.67;;;15.25;;
20533;SDS011;12929;56.822;26.056;2023-09-19T07:37:52;23.00;;;14.88;;
20533;SDS011;12929;56.822;26.056;2023-09-19T07:40:20;22.60;;;14.65;;
20533;SDS011;12929;56.822;26.056;2023-09-19T07:42:48;20.15;;;14.65;;
20533;SDS011;12929;56.822;26.056;2023-09-19T07:45:17;19.65;;;13.95;;
20533;SDS011;12929;56.822;26.056;2023-09-19T07:47:45;19.73;;;13.85;;
20533;SDS011;12929;56.822;26.056;2023-09-19T07:50:15;20.67;;;14.18;;
20533;SDS011;12929;56.822;26.056;2023-09-19T07:52:44;22.40;;;14.18;;
20533;SDS011;12929;56.822;26.056;2023-09-19T07:55:12;18.33;;;13.35;;
20533;SDS011;12929;56.822;26.056;2023-09-19T07:57:43;20.13;;;14.65;;
20533;SDS011;12929;56.822;26.056;2023-09-19T08:00:11;22.40;;;13.80;;
20533;SDS011;12929;56.822;26.056;2023-09-19T08:02:40;20.85;;;14.30;;
20533;SDS011;12929;56.822;26.056;2023-09-19T08:05:11;19.23;;;13.18;;
20533;SDS011;12929;56.822;26.056;2023-09-19T08:07:43;19.25;;;13.98;;
20533;SDS011;12929;56.822;26.056;2023-09-19T08:10:19;22.20;;;14.38;;
20533;SDS011;12929;56.822;26.056;2023-09-19T08:12:48;19.48;;;13.88;;
20533;SDS011;12929;56.822;26.056;2023-09-19T08:15:16;21.45;;;15.02;;
20533;SDS011;12929;56.822;26.056;2023-09-19T08:17:48;20.30;;;14.40;;
20533;SDS011;12929;56.822;26.056;2023-09-19T08:20:17;24.80;;;14.98;;
20533;SDS011;12929;56.822;26.056;2023-09-19T08:22:49;21.60;;;13.43;;
20533;SDS011;12929;56.822;26.056;2023-09-19T08:25:22;17.27;;;12.75;;
20533;SDS011;12929;56.822;26.056;2023-09-19T08:27:50;18.17;;;14.82;;
20533;SDS011;12929;56.822;26.056;2023-09-19T08:30:18;20.30;;;13.65;;
20533;SDS011;12929;56.822;26.056;2023-09-19T08:32:56;19.70;;;12.73;;
20533;SDS011;12929;56.822;26.056;2023-09-19T08:35:28;18.15;;;12.55;;
20533;SDS011;12929;56.822;26.056;2023-09-19T08:37:56;16.98;;;11.63;;
20533;SDS011;12929;56.822;26.056;2023-09-19T08:40:24;19.63;;;11.88;;
20533;SDS011;12929;56.822;26.056;2023-09-19T08:42:54;19.77;;;13.52;;
20533;SDS011;12929;56.822;26.056;2023-09-19T08:45:23;16.80;;;12.25;;
20533;SDS011;12929;56.822;26.056;2023-09-19T08:51:00;19.17;;;12.65;;
20533;SDS011;12929;56.822;26.056;2023-09-19T08:53:42;16.98;;;14.57;;
20533;SDS011;12929;56.822;26.056;2023-09-19T08:56:26;16.83;;;11.85;;
20533;SDS011;12929;56.822;26.056;2023-09-19T08:59:03;17.55;;;12.20;;
20533;SDS011;12929;56.822;26.056;2023-09-19T09:01:39;21.65;;;11.85;;
20533;SDS011;12929;56.822;26.056;2023-09-19T09:04:09;18.25;;;12.18;;
20533;SDS011;12929;56.822;26.056;2023-09-19T09:06:40;18.40;;;11.48;;
20533;SDS011;12929;56.822;26.056;2023-09-19T09:09:10;17.52;;;12.05;;
20533;SDS011;12929;56.822;26.056;2023-09-19T09:11:38;20.45;;;11.85;;
20533;SDS011;12929;56.822;26.056;2023-09-19T09:14:07;16.65;;;11.40;;
20533;SDS011;12929;56.822;26.056;2023-09-19T09:16:35;14.48;;;10.80;;
20533;SDS011;12929;56.822;26.056;2023-09-19T09:19:02;16.52;;;11.23;;
20533;SDS011;12929;56.822;26.056;2023-09-19T09:21:31;16.42;;;11.65;;
20533;SDS011;12929;56.822;26.056;2023-09-19T09:26:53;16.52;;;11.77;;
20533;SDS011;12929;56.822;26.056;2023-09-19T09:37:27;18.48;;;10.82;;
20533;SDS011;12929;56.822;26.056;2023-09-19T09:39:58;16.13;;;11.05;;
20533;SDS011;12929;56.822;26.056;2023-09-19T09:42:46;18.75;;;11.60;;
20533;SDS011;12929;56.822;26.056;2023-09-19T09:48:04;17.40;;;10.50;;
20533;SDS011;12929;56.822;26.056;2023-09-19T09:50:48;16.23;;;10.23;;
20533;SDS011;12929;56.822;26.056;2023-09-19T09:55:58;16.35;;;10.75;;
20533;SDS011;12929;56.822;26.056;2023-09-19T09:58:27;13.13;;;9.85;;
20533;SDS011;12929;56.822;26.056;2023-09-19T10:01:04;14.77;;;9.57;;
20533;SDS011;12929;56.822;26.056;2023-09-19T10:03:42;16.98;;;9.48;;
20533;SDS011;12929;56.822;26.056;2023-09-19T10:06:15;13.32;;;9.70;;
20533;SDS011;12929;56.822;26.056;2023-09-19T10:11:33;13.60;;;9.43;;
20533;SDS011;12929;56.822;26.056;2023-09-19T10:14:03;14.73;;;9.93;;
20533;SDS011;12929;56.822;26.056;2023-09-19T10:16:33;15.82;;;9.75;;
20533;SDS011;12929;56.822;26.056;2023-09-19T10:19:04;14.57;;;9.90;;
20533;SDS011;12929;56.822;26.056;2023-09-19T10:21:35;17.88;;;9.70;;
20533;SDS011;12929;56.822;26.056;2023-09-19T10:24:03;14.27;;;9.88;;
20533;SDS011;12929;56.822;26.056;2023-09-19T10:26:35;14.43;;;9.52;;
20533;SDS011;12929;56.822;26.056;2023-09-19T10:29:04;15.45;;;9.27;;
20533;SDS011;12929;56.822;26.056;2023-09-19T10:31:34;13.68;;;8.93;;
20533;SDS011;12929;56.822;26.056;2023-09-19T10:34:08;11.75;;;8.52;;
20533;SDS011;12929;56.822;26.056;2023-09-19T10:36:36;13.05;;;8.70;;
20533;SDS011;12929;56.822;26.056;2023-09-19T10:39:09;10.75;;;8.10;;
20533;SDS011;12929;56.822;26.056;2023-09-19T10:41:39;14.48;;;8.90;;
20533;SDS011;12929;56.822;26.056;2023-09-19T10:44:07;14.75;;;8.73;;
20533;SDS011;12929;56.822;26.056;2023-09-19T10:46:36;13.85;;;8.93;;
20533;SDS011;12929;56.822;26.056;2023-09-19T10:49:05;14.00;;;9.27;;
20533;SDS011;12929;56.822;26.056;2023-09-19T10:51:37;13.55;;;8.38;;
20533;SDS011;12929;56.822;26.056;2023-09-19T10:54:12;12.60;;;8.68;;
20533;SDS011;12929;56.822;26.056;2023-09-19T10:56:43;12.95;;;8.82;;
20533;SDS011;12929;56.822;26.056;2023-09-19T10:59:15;13.43;;;8.13;;
20533;SDS011;12929;56.822;26.056;2023-09-19T11:01:46;12.07;;;8.80;;
20533;SDS011;12929;56.822;26.056;2023-09-19T11:07:07;12.85;;;9.10;;
20533;SDS011;12929;56.822;26.056;2023-09-19T11:09:50;14.30;;;9.10;;
20533;SDS011;12929;56.822;26.056;2023-09-19T11:14:58;15.35;;;9.60;;
20533;SDS011;12929;56.822;26.056;2023-09-19T11:17:29;11.45;;;8.15;;
20533;SDS011;12929;56.822;26.056;2023-09-19T11:30:44;11.82;;;7.60;;
20533;SDS011;12929;56.822;26.056;2023-09-19T11:36:11;11.88;;;8.10;;
20533;SDS011;12929;56.822;26.056;2023-09-19T11:43:47;12.82;;;7.32;;
20533;SDS011;12929;56.822;26.056;2023-09-19T11:46:21;11.98;;;6.85;;
20533;SDS011;12929;56.822;26.056;2023-09-19T11:48:49;8.95;;;6.57;;
20533;SDS011;12929;56.822;26.056;2023-09-19T11:51:18;10.43;;;7.00;;
20533;SDS011;12929;56.822;26.056;2023-09-19T11:53:55;13.38;;;7.30;;
20533;SDS011;12929;56.822;26.056;2023-09-19T11:56:27;10.73;;;7.75;;
20533;SDS011;12929;56.822;26.056;2023-09-19T11:58:55;12.32;;;7.13;;
20533;SDS011;12929;56.822;26.056;2023-09-19T12:01:32;9.55;;;7.18;;
20533;SDS011;12929;56.822;26.056;2023-09-19T12:04:02;10.65;;;7.60;;
20533;SDS011;12929;56.822;26.056;2023-09-19T12:06:31;9.77;;;6.88;;
20533;SDS011;12929;56.822;26.056;2023-09-19T12:08:59;9.75;;;7.05;;
20533;SDS011;12929;56.822;26.056;2023-09-19T12:11:30;12.52;;;7.13;;
20533;SDS011;12929;56.822;26.056;2023-09-19T12:14:02;10.38;;;7.05;;
20533;SDS011;12929;56.822;26.056;2023-09-19T12:16:31;12.57;;;7.53;;
20533;SDS011;12929;56.822;26.056;2023-09-19T12:19:17;13.55;;;7.93;;
20533;SDS011;12929;56.822;26.056;2023-09-19T12:22:01;12.32;;;7.50;;
20533;SDS011;12929;56.822;26.056;2023-09-19T12:24:33;10.45;;;7.35;;
20533;SDS011;12929;56.822;26.056;2023-09-19T12:27:04;16.88;;;7.43;;
20533;SDS011;12929;56.822;26.056;2023-09-19T12:29:46;9.98;;;7.47;;
20533;SDS011;12929;56.822;26.056;2023-09-19T12:32:36;13.27;;;7.70;;
20533;SDS011;12929;56.822;26.056;2023-09-19T12:35:07;10.75;;;7.28;;
20533;SDS011;12929;56.822;26.056;2023-09-19T12:37:44;11.05;;;7.65;;
20533;SDS011;12929;56.822;26.056;2023-09-19T12:40:20;10.45;;;7.18;;
20533;SDS011;12929;56.822;26.056;2023-09-19T12:42:56;9.38;;;7.30;;
20533;SDS011;12929;56.822;26.056;2023-09-19T12:45:30;12.93;;;7.95;;
20533;SDS011;12929;56.822;26.056;2023-09-19T12:51:06;10.15;;;6.95;;
20533;SDS011;12929;56.822;26.056;2023-09-19T12:53:37;12.82;;;7.65;;
20533;SDS011;12929;56.822;26.056;2023-09-19T12:56:09;10.38;;;7.72;;
20533;SDS011;12929;56.822;26.056;2023-09-19T12:58:56;12.65;;;7.60;;
20533;SDS011;12929;56.822;26.056;2023-09-19T13:01:28;11.50;;;7.32;;
20533;SDS011;12929;56.822;26.056;2023-09-19T13:04:30;10.80;;;7.72;;
20533;SDS011;12929;56.822;26.056;2023-09-19T13:06:55;18.73;;;8.13;;
20533;SDS011;12929;56.822;26.056;2023-09-19T13:09:28;13.90;;;8.70;;
20533;SDS011;12929;56.822;26.056;2023-09-19T13:12:02;12.20;;;7.95;;
20533;SDS011;12929;56.822;26.056;2023-09-19T13:14:31;11.55;;;7.88;;
20533;SDS011;12929;56.822;26.056;2023-09-19T13:17:03;16.95;;;8.00;;
20533;SDS011;12929;56.822;26.056;2023-09-19T13:19:47;10.88;;;7.22;;
20533;SDS011;12929;56.822;26.056;2023-09-19T13:22:39;14.85;;;8.50;;
20533;SDS011;12929;56.822;26.056;2023-09-19T13:25:14;13.60;;;7.85;;
20533;SDS011;12929;56.822;26.056;2023-09-19T13:30:19;11.25;;;7.85;;
20533;SDS011;12929;56.822;26.056;2023-09-19T13:33:05;15.05;;;8.20;;
20533;SDS011;12929;56.822;26.056;2023-09-19T13:35:40;12.88;;;8.90;;
20533;SDS011;12929;56.822;26.056;2023-09-19T13:38:08;13.75;;;8.55;;
20533;SDS011;12929;56.822;26.056;2023-09-19T13:40:38;16.83;;;8.25;;
20533;SDS011;12929;56.822;26.056;2023-09-19T13:43:09;14.57;;;7.53;;
20533;SDS011;12929;56.822;26.056;2023-09-19T13:45:38;11.85;;;8.00;;
20533;SDS011;12929;56.822;26.056;2023-09-19T13:48:08;13.13;;;8.02;;
20533;SDS011;12929;56.822;26.056;2023-09-19T13:50:38;13.95;;;8.02;;
20533;SDS011;12929;56.822;26.056;2023-09-19T13:53:09;16.52;;;8.93;;
20533;SDS011;12929;56.822;26.056;2023-09-19T13:55:37;14.77;;;8.40;;
20533;SDS011;12929;56.822;26.056;2023-09-19T13:58:04;12.60;;;8.10;;
20533;SDS011;12929;56.822;26.056;2023-09-19T14:00:33;11.70;;;8.50;;
20533;SDS011;12929;56.822;26.056;2023-09-19T14:03:01;12.52;;;7.82;;
20533;SDS011;12929;56.822;26.056;2023-09-19T14:05:29;12.25;;;8.55;;
20533;SDS011;12929;56.822;26.056;2023-09-19T14:07:57;13.73;;;8.65;;
20533;SDS011;12929;56.822;26.056;2023-09-19T14:10:26;10.98;;;7.90;;
20533;SDS011;12929;56.822;26.056;2023-09-19T14:12:54;14.10;;;8.68;;
20533;SDS011;12929;56.822;26.056;2023-09-19T14:15:22;12.88;;;7.82;;
20533;SDS011;12929;56.822;26.056;2023-09-19T14:17:56;16.63;;;8.98;;
20533;SDS011;12929;56.822;26.056;2023-09-19T14:20:27;13.15;;;8.30;;
20533;SDS011;12929;56.822;26.056;2023-09-19T14:22:57;17.38;;;8.75;;
20533;SDS011;12929;56.822;26.056;2023-09-19T14:25:27;14.43;;;8.55;;
20533;SDS011;12929;56.822;26.056;2023-09-19T14:27:55;12.73;;;8.25;;
20533;SDS011;12929;56.822;26.056;2023-09-19T14:30:23;13.93;;;8.48;;
20533;SDS011;12929;56.822;26.056;2023-09-19T14:32:50;12.90;;;8.25;;
20533;SDS011;12929;56.822;26.056;2023-09-19T14:35:18;18.10;;;9.10;;
20533;SDS011;12929;56.822;26.056;2023-09-19T14:37:46;15.52;;;9.18;;
20533;SDS011;12929;56.822;26.056;2023-09-19T14:40:14;14.48;;;9.55;;
20533;SDS011;12929;56.822;26.056;2023-09-19T14:42:44;13.02;;;9.52;;
20533;SDS011;12929;56.822;26.056;2023-09-19T14:45:12;14.80;;;8.38;;
20533;SDS011;12929;56.822;26.056;2023-09-19T14:47:41;17.42;;;9.25;;
20533;SDS011;12929;56.822;26.056;2023-09-19T14:50:09;14.82;;;8.75;;
20533;SDS011;12929;56.822;26.056;2023-09-19T14:52:38;13.75;;;8.80;;
20533;SDS011;12929;56.822;26.056;2023-09-19T14:55:07;13.27;;;8.93;;
20533;SDS011;12929;56.822;26.056;2023-09-19T14:57:41;17.73;;;9.95;;
20533;SDS011;12929;56.822;26.056;2023-09-19T15:00:12;12.55;;;8.85;;
20533;SDS011;12929;56.822;26.056;2023-09-19T15:02:40;13.20;;;9.13;;
20533;SDS011;12929;56.822;26.056;2023-09-19T15:05:08;13.43;;;9.45;;
20533;SDS011;12929;56.822;26.056;2023-09-19T15:07:36;14.18;;;9.57;;
20533;SDS011;12929;56.822;26.056;2023-09-19T15:10:04;16.02;;;9.32;;
20533;SDS011;12929;56.822;26.056;2023-09-19T15:12:36;14.50;;;8.65;;
20533;SDS011;12929;56.822;26.056;2023-09-19T15:15:07;13.75;;;9.18;;
20533;SDS011;12929;56.822;26.056;2023-09-19T15:17:36;15.07;;;9.20;;
20533;SDS011;12929;56.822;26.056;2023-09-19T15:20:04;13.82;;;8.95;;
20533;SDS011;12929;56.822;26.056;2023-09-19T15:22:33;13.93;;;9.00;;
20533;SDS011;12929;56.822;26.056;2023-09-19T15:25:04;13.30;;;8.75;;
20533;SDS011;12929;56.822;26.056;2023-09-19T15:27:32;18.60;;;10.35;;
20533;SDS011;12929;56.822;26.056;2023-09-19T15:30:00;17.38;;;9.77;;
20533;SDS011;12929;56.822;26.056;2023-09-19T15:32:29;19.55;;;10.35;;